sensor_id;sensor_type;location;lat;lon;timestamp;temperature;humidity
11489;DHT22;5801;50.804;12.638;2022-09-24T00:01:53;8.30;99.90
11489;DHT22;5801;50.804;12.638;2022-09-24T00:04:18;8.50;1.00
11489;DHT22;5801;50.804;12.638;2022-09-24T00:09:13;8.40;99.90
11489;DHT22;5801;50.804;12.638;2022-09-24T00:14:05;8.10;2.90
11489;DHT22;5801;50.804;12.638;2022-09-24T00:16:31;8.20;44.10
11489;DHT22;5801;50.804;12.638;2022-09-24T00:18:58;8.00;1.00
11489;DHT22;5801;50.804;12.638;2022-09-24T00:21:26;8.10;99.90
11489;DHT22;5801;50.804;12.638;2022-09-24T00:23:54;8.60;1.00
11489;DHT22;5801;50.804;12.638;2022-09-24T00:26:20;8.20;99.90
11489;DHT22;5801;50.804;12.638;2022-09-24T00:29:05;8.10;1.00
11489;DHT22;5801;50.804;12.638;2022-09-24T00:33:57;8.00;1.00
11489;DHT22;5801;50.804;12.638;2022-09-24T00:36:23;8.10;1.00
11489;DHT22;5801;50.804;12.638;2022-09-24T00:38:50;8.10;99.90
11489;DHT22;5801;50.804;12.638;2022-09-24T00:41:17;8.00;99.90
11489;DHT22;5801;50.804;12.638;2022-09-24T00:43:45;8.20;1.00
11489;DHT22;5801;50.804;12.638;2022-09-24T00:46:25;8.00;99.90
11489;DHT22;5801;50.804;12.638;2022-09-24T00:48:59;8.10;99.90
11489;DHT22;5801;50.804;12.638;2022-09-24T00:51:26;8.00;99.90
11489;DHT22;5801;50.804;12.638;2022-09-24T00:53:58;8.00;99.90
11489;DHT22;5801;50.804;12.638;2022-09-24T00:58:53;8.10;99.90
11489;DHT22;5801;50.804;12.638;2022-09-24T01:01:22;8.10;99.90
11489;DHT22;5801;50.804;12.638;2022-09-24T01:03:49;8.10;99.90
11489;DHT22;5801;50.804;12.638;2022-09-24T01:08:42;8.00;1.00
11489;DHT22;5801;50.804;12.638;2022-09-24T01:16:45;8.10;99.90
11489;DHT22;5801;50.804;12.638;2022-09-24T01:21:57;7.90;1.00
11489;DHT22;5801;50.804;12.638;2022-09-24T01:24:46;7.70;1.00
11489;DHT22;5801;50.804;12.638;2022-09-24T01:32:34;7.80;15.40
11489;DHT22;5801;50.804;12.638;2022-09-24T01:37:33;7.40;1.00
11489;DHT22;5801;50.804;12.638;2022-09-24T01:40:01;7.60;99.90
11489;DHT22;5801;50.804;12.638;2022-09-24T01:42:28;7.50;1.00
11489;DHT22;5801;50.804;12.638;2022-09-24T01:47:36;7.50;99.90
11489;DHT22;5801;50.804;12.638;2022-09-24T01:50:08;7.60;1.00
11489;DHT22;5801;50.804;12.638;2022-09-24T01:52:39;7.50;1.00
11489;DHT22;5801;50.804;12.638;2022-09-24T01:55:09;7.30;1.00
11489;DHT22;5801;50.804;12.638;2022-09-24T01:57:43;7.40;1.00
11489;DHT22;5801;50.804;12.638;2022-09-24T02:00:16;7.40;99.90
11489;DHT22;5801;50.804;12.638;2022-09-24T02:03:03;7.50;99.90
11489;DHT22;5801;50.804;12.638;2022-09-24T02:05:37;7.50;99.90
11489;DHT22;5801;50.804;12.638;2022-09-24T02:10:33;7.40;85.40
11489;DHT22;5801;50.804;12.638;2022-09-24T02:13:05;7.50;1.00
11489;DHT22;5801;50.804;12.638;2022-09-24T02:15:33;7.30;1.00
11489;DHT22;5801;50.804;12.638;2022-09-24T02:18:10;7.50;1.00
11489;DHT22;5801;50.804;12.638;2022-09-24T02:20:40;7.50;1.00
11489;DHT22;5801;50.804;12.638;2022-09-24T02:23:07;7.50;1.00
11489;DHT22;5801;50.804;12.638;2022-09-24T02:25:54;7.50;99.90
11489;DHT22;5801;50.804;12.638;2022-09-24T02:30:51;7.80;92.30
11489;DHT22;5801;50.804;12.638;2022-09-24T02:33:19;7.50;40.40
11489;DHT22;5801;50.804;12.638;2022-09-24T02:38:31;7.60;1.00
11489;DHT22;5801;50.804;12.638;2022-09-24T02:40:57;7.50;99.90
11489;DHT22;5801;50.804;12.638;2022-09-24T02:43:22;7.20;1.00
11489;DHT22;5801;50.804;12.638;2022-09-24T02:50:40;7.70;1.00
11489;DHT22;5801;50.804;12.638;2022-09-24T02:55:31;7.50;1.00
11489;DHT22;5801;50.804;12.638;2022-09-24T03:00:23;7.60;1.00
11489;DHT22;5801;50.804;12.638;2022-09-24T03:05:14;7.50;1.00
11489;DHT22;5801;50.804;12.638;2022-09-24T03:10:08;7.50;1.00
11489;DHT22;5801;50.804;12.638;2022-09-24T03:17:25;7.60;1.00
11489;DHT22;5801;50.804;12.638;2022-09-24T03:24:44;7.60;1.00
11489;DHT22;5801;50.804;12.638;2022-09-24T03:27:10;7.50;3.30
11489;DHT22;5801;50.804;12.638;2022-09-24T03:29:35;7.40;1.00
11489;DHT22;5801;50.804;12.638;2022-09-24T03:49:44;7.40;1.00
11489;DHT22;5801;50.804;12.638;2022-09-24T03:52:10;7.40;1.00
11489;DHT22;5801;50.804;12.638;2022-09-24T03:54:35;7.40;1.00
11489;DHT22;5801;50.804;12.638;2022-09-24T04:06:44;7.40;20.40
11489;DHT22;5801;50.804;12.638;2022-09-24T04:11:35;7.50;1.00
11489;DHT22;5801;50.804;12.638;2022-09-24T04:14:02;7.10;99.90
11489;DHT22;5801;50.804;12.638;2022-09-24T04:23:46;7.60;99.90
11489;DHT22;5801;50.804;12.638;2022-09-24T04:26:12;7.60;1.00
11489;DHT22;5801;50.804;12.638;2022-09-24T04:28:37;7.50;1.00
11489;DHT22;5801;50.804;12.638;2022-09-24T04:31:03;7.40;1.00
11489;DHT22;5801;50.804;12.638;2022-09-24T04:40:46;7.70;1.00
11489;DHT22;5801;50.804;12.638;2022-09-24T04:45:38;7.60;1.00
11489;DHT22;5801;50.804;12.638;2022-09-24T04:48:04;7.80;99.90
11489;DHT22;5801;50.804;12.638;2022-09-24T04:50:30;7.70;99.90
11489;DHT22;5801;50.804;12.638;2022-09-24T04:55:23;7.70;1.00
11489;DHT22;5801;50.804;12.638;2022-09-24T05:00:19;7.70;99.90
11489;DHT22;5801;50.804;12.638;2022-09-24T05:02:44;7.70;1.00
11489;DHT22;5801;50.804;12.638;2022-09-24T05:05:11;7.50;1.00
11489;DHT22;5801;50.804;12.638;2022-09-24T05:10:04;7.70;1.00
11489;DHT22;5801;50.804;12.638;2022-09-24T05:12:30;7.70;1.00
11489;DHT22;5801;50.804;12.638;2022-09-24T05:14:56;7.90;1.00
11489;DHT22;5801;50.804;12.638;2022-09-24T05:27:05;7.90;1.00
11489;DHT22;5801;50.804;12.638;2022-09-24T05:29:41;7.90;1.00
11489;DHT22;5801;50.804;12.638;2022-09-24T05:32:12;8.00;1.00
11489;DHT22;5801;50.804;12.638;2022-09-24T05:39:31;7.90;39.80
11489;DHT22;5801;50.804;12.638;2022-09-24T05:44:23;7.90;1.00
11489;DHT22;5801;50.804;12.638;2022-09-24T05:46:50;7.80;1.00
11489;DHT22;5801;50.804;12.638;2022-09-24T05:49:16;7.90;1.00
11489;DHT22;5801;50.804;12.638;2022-09-24T05:54:08;7.90;1.00
11489;DHT22;5801;50.804;12.638;2022-09-24T05:59:01;8.10;34.50
11489;DHT22;5801;50.804;12.638;2022-09-24T06:01:27;8.20;99.90
11489;DHT22;5801;50.804;12.638;2022-09-24T06:03:57;8.20;1.00
11489;DHT22;5801;50.804;12.638;2022-09-24T06:06:26;8.20;45.30
11489;DHT22;5801;50.804;12.638;2022-09-24T06:08:52;8.50;1.00
11489;DHT22;5801;50.804;12.638;2022-09-24T06:13:46;8.70;1.00
11489;DHT22;5801;50.804;12.638;2022-09-24T06:16:11;8.70;1.00
11489;DHT22;5801;50.804;12.638;2022-09-24T06:18:38;9.20;1.00
11489;DHT22;5801;50.804;12.638;2022-09-24T06:21:09;9.40;99.90
11489;DHT22;5801;50.804;12.638;2022-09-24T06:26:02;9.50;99.90
11489;DHT22;5801;50.804;12.638;2022-09-24T06:28:28;9.80;99.90
11489;DHT22;5801;50.804;12.638;2022-09-24T06:33:19;9.90;1.00
11489;DHT22;5801;50.804;12.638;2022-09-24T06:35:46;9.90;99.90
11489;DHT22;5801;50.804;12.638;2022-09-24T06:38:14;10.20;1.00
11489;DHT22;5801;50.804;12.638;2022-09-24T06:40:41;10.20;99.90
11489;DHT22;5801;50.804;12.638;2022-09-24T06:43:09;10.20;99.90
11489;DHT22;5801;50.804;12.638;2022-09-24T06:45:35;10.40;1.00
11489;DHT22;5801;50.804;12.638;2022-09-24T06:48:02;10.60;99.90
11489;DHT22;5801;50.804;12.638;2022-09-24T06:50:30;10.90;1.00
11489;DHT22;5801;50.804;12.638;2022-09-24T06:52:57;10.80;99.90
11489;DHT22;5801;50.804;12.638;2022-09-24T06:55:23;11.10;1.00
11489;DHT22;5801;50.804;12.638;2022-09-24T07:00:16;11.20;99.90
11489;DHT22;5801;50.804;12.638;2022-09-24T07:02:42;11.40;99.90
11489;DHT22;5801;50.804;12.638;2022-09-24T07:05:08;11.80;99.90
11489;DHT22;5801;50.804;12.638;2022-09-24T07:10:02;12.60;99.90
11489;DHT22;5801;50.804;12.638;2022-09-24T07:12:32;12.90;99.90
11489;DHT22;5801;50.804;12.638;2022-09-24T07:17:25;13.50;99.90
11489;DHT22;5801;50.804;12.638;2022-09-24T07:29:35;17.20;99.90
11489;DHT22;5801;50.804;12.638;2022-09-24T07:32:01;17.90;99.90
11489;DHT22;5801;50.804;12.638;2022-09-24T07:39:21;19.00;99.90
11489;DHT22;5801;50.804;12.638;2022-09-24T07:41:47;19.20;99.90
11489;DHT22;5801;50.804;12.638;2022-09-24T07:56:23;20.00;99.90
11489;DHT22;5801;50.804;12.638;2022-09-24T07:58:50;19.70;99.90
11489;DHT22;5801;50.804;12.638;2022-09-24T08:01:17;20.10;99.90
11489;DHT22;5801;50.804;12.638;2022-09-24T08:03:44;20.10;99.90
11489;DHT22;5801;50.804;12.638;2022-09-24T08:06:10;20.20;99.90
11489;DHT22;5801;50.804;12.638;2022-09-24T08:08:36;20.50;99.90
11489;DHT22;5801;50.804;12.638;2022-09-24T08:11:04;20.70;99.90
11489;DHT22;5801;50.804;12.638;2022-09-24T08:15:57;21.20;99.90
11489;DHT22;5801;50.804;12.638;2022-09-24T08:18:27;20.80;99.90
11489;DHT22;5801;50.804;12.638;2022-09-24T08:20:53;19.10;99.90
11489;DHT22;5801;50.804;12.638;2022-09-24T08:23:18;18.90;99.90
11489;DHT22;5801;50.804;12.638;2022-09-24T08:28:11;18.80;99.90
11489;DHT22;5801;50.804;12.638;2022-09-24T08:30:37;19.50;99.90
11489;DHT22;5801;50.804;12.638;2022-09-24T08:33:04;20.10;99.90
11489;DHT22;5801;50.804;12.638;2022-09-24T08:35:35;20.50;99.90
11489;DHT22;5801;50.804;12.638;2022-09-24T08:38:01;20.50;99.90
11489;DHT22;5801;50.804;12.638;2022-09-24T08:40:29;20.70;99.90
11489;DHT22;5801;50.804;12.638;2022-09-24T08:45:43;21.30;99.90
11489;DHT22;5801;50.804;12.638;2022-09-24T08:48:31;21.50;95.20
11489;DHT22;5801;50.804;12.638;2022-09-24T08:51:01;21.20;99.90
11489;DHT22;5801;50.804;12.638;2022-09-24T08:56:00;22.20;99.90
11489;DHT22;5801;50.804;12.638;2022-09-24T08:58:46;22.70;99.90
11489;DHT22;5801;50.804;12.638;2022-09-24T09:06:51;23.50;98.90
11489;DHT22;5801;50.804;12.638;2022-09-24T09:09:23;24.00;95.60
11489;DHT22;5801;50.804;12.638;2022-09-24T09:11:56;23.60;97.70
11489;DHT22;5801;50.804;12.638;2022-09-24T09:14:39;23.90;78.40
11489;DHT22;5801;50.804;12.638;2022-09-24T09:17:15;23.40;81.90
11489;DHT22;5801;50.804;12.638;2022-09-24T09:19:50;23.10;82.70
11489;DHT22;5801;50.804;12.638;2022-09-24T09:22:21;23.20;83.40
11489;DHT22;5801;50.804;12.638;2022-09-24T09:24:50;23.40;80.80
11489;DHT22;5801;50.804;12.638;2022-09-24T09:27:17;23.20;82.10
11489;DHT22;5801;50.804;12.638;2022-09-24T09:29:46;23.30;99.90
11489;DHT22;5801;50.804;12.638;2022-09-24T09:32:25;23.50;91.20
11489;DHT22;5801;50.804;12.638;2022-09-24T09:35:17;23.40;99.90
11489;DHT22;5801;50.804;12.638;2022-09-24T09:38:37;23.40;76.40
11489;DHT22;5801;50.804;12.638;2022-09-24T09:41:25;23.20;99.90
11489;DHT22;5801;50.804;12.638;2022-09-24T09:43:58;23.20;94.80
11489;DHT22;5801;50.804;12.638;2022-09-24T09:46:32;23.80;99.90
11489;DHT22;5801;50.804;12.638;2022-09-24T09:49:03;24.20;99.90
11489;DHT22;5801;50.804;12.638;2022-09-24T09:51:37;24.30;99.90
11489;DHT22;5801;50.804;12.638;2022-09-24T09:54:05;24.90;83.50
11489;DHT22;5801;50.804;12.638;2022-09-24T09:56:37;25.00;84.30
11489;DHT22;5801;50.804;12.638;2022-09-24T10:01:33;24.70;61.60
11489;DHT22;5801;50.804;12.638;2022-09-24T10:04:01;24.50;99.90
11489;DHT22;5801;50.804;12.638;2022-09-24T10:06:34;24.60;99.10
11489;DHT22;5801;50.804;12.638;2022-09-24T10:09:15;24.80;59.80
11489;DHT22;5801;50.804;12.638;2022-09-24T10:11:40;24.90;79.70
11489;DHT22;5801;50.804;12.638;2022-09-24T10:14:11;24.80;98.20
11489;DHT22;5801;50.804;12.638;2022-09-24T10:16:39;25.10;86.00
11489;DHT22;5801;50.804;12.638;2022-09-24T10:19:20;25.10;78.90
11489;DHT22;5801;50.804;12.638;2022-09-24T10:21:47;25.20;77.50
11489;DHT22;5801;50.804;12.638;2022-09-24T10:24:19;25.10;62.10
11489;DHT22;5801;50.804;12.638;2022-09-24T10:26:46;25.10;78.90
11489;DHT22;5801;50.804;12.638;2022-09-24T10:29:16;24.80;79.90
11489;DHT22;5801;50.804;12.638;2022-09-24T10:32:03;25.20;76.40
11489;DHT22;5801;50.804;12.638;2022-09-24T10:34:29;25.40;75.80
11489;DHT22;5801;50.804;12.638;2022-09-24T10:37:11;24.90;76.00
11489;DHT22;5801;50.804;12.638;2022-09-24T10:42:03;23.30;83.70
11489;DHT22;5801;50.804;12.638;2022-09-24T10:44:34;22.30;99.90
11489;DHT22;5801;50.804;12.638;2022-09-24T10:47:34;21.90;99.90
11489;DHT22;5801;50.804;12.638;2022-09-24T10:53:07;23.00;99.90
11489;DHT22;5801;50.804;12.638;2022-09-24T10:55:57;23.20;63.60
11489;DHT22;5801;50.804;12.638;2022-09-24T10:58:39;23.50;94.00
11489;DHT22;5801;50.804;12.638;2022-09-24T11:01:23;23.70;99.90
11489;DHT22;5801;50.804;12.638;2022-09-24T11:03:53;23.30;98.00
11489;DHT22;5801;50.804;12.638;2022-09-24T11:06:44;23.10;89.10
11489;DHT22;5801;50.804;12.638;2022-09-24T11:09:28;23.20;99.90
11489;DHT22;5801;50.804;12.638;2022-09-24T11:12:08;23.40;62.40
11489;DHT22;5801;50.804;12.638;2022-09-24T11:17:31;23.40;62.00
11489;DHT22;5801;50.804;12.638;2022-09-24T11:30:22;24.40;73.30
11489;DHT22;5801;50.804;12.638;2022-09-24T11:33:15;24.00;61.30
11489;DHT22;5801;50.804;12.638;2022-09-24T11:36:18;24.00;79.50
11489;DHT22;5801;50.804;12.638;2022-09-24T11:39:11;23.50;81.40
11489;DHT22;5801;50.804;12.638;2022-09-24T11:42:04;23.80;72.20
11489;DHT22;5801;50.804;12.638;2022-09-24T11:44:54;23.40;58.80
11489;DHT22;5801;50.804;12.638;2022-09-24T11:47:35;22.50;63.30
11489;DHT22;5801;50.804;12.638;2022-09-24T11:50:30;22.50;66.40
11489;DHT22;5801;50.804;12.638;2022-09-24T11:56:20;24.50;58.70
11489;DHT22;5801;50.804;12.638;2022-09-24T11:58:57;24.80;56.90
11489;DHT22;5801;50.804;12.638;2022-09-24T12:01:32;24.80;56.30
11489;DHT22;5801;50.804;12.638;2022-09-24T12:04:21;24.40;67.30
11489;DHT22;5801;50.804;12.638;2022-09-24T12:07:05;23.90;68.50
11489;DHT22;5801;50.804;12.638;2022-09-24T12:09:44;23.20;58.80
11489;DHT22;5801;50.804;12.638;2022-09-24T12:12:16;22.70;59.90
11489;DHT22;5801;50.804;12.638;2022-09-24T12:14:56;22.30;64.30
11489;DHT22;5801;50.804;12.638;2022-09-24T12:17:32;22.00;98.30
11489;DHT22;5801;50.804;12.638;2022-09-24T12:22:46;20.90;74.50
11489;DHT22;5801;50.804;12.638;2022-09-24T12:25:15;20.40;99.90
11489;DHT22;5801;50.804;12.638;2022-09-24T12:27:41;20.20;80.10
11489;DHT22;5801;50.804;12.638;2022-09-24T12:33:39;20.10;91.40
11489;DHT22;5801;50.804;12.638;2022-09-24T12:36:34;19.90;83.50
11489;DHT22;5801;50.804;12.638;2022-09-24T12:39:06;19.80;99.90
11489;DHT22;5801;50.804;12.638;2022-09-24T12:41:34;19.70;99.90
11489;DHT22;5801;50.804;12.638;2022-09-24T12:44:16;19.70;89.00
11489;DHT22;5801;50.804;12.638;2022-09-24T12:46:52;19.90;90.00
11489;DHT22;5801;50.804;12.638;2022-09-24T12:49:27;19.90;87.60
11489;DHT22;5801;50.804;12.638;2022-09-24T12:51:59;19.90;99.90
11489;DHT22;5801;50.804;12.638;2022-09-24T12:57:15;20.00;99.90
11489;DHT22;5801;50.804;12.638;2022-09-24T12:59:58;20.10;84.70
11489;DHT22;5801;50.804;12.638;2022-09-24T13:05:24;20.20;84.50
11489;DHT22;5801;50.804;12.638;2022-09-24T13:07:56;20.20;86.10
11489;DHT22;5801;50.804;12.638;2022-09-24T13:10:33;20.00;99.90
11489;DHT22;5801;50.804;12.638;2022-09-24T13:15:30;19.90;90.10
11489;DHT22;5801;50.804;12.638;2022-09-24T13:18:04;20.10;94.20
11489;DHT22;5801;50.804;12.638;2022-09-24T13:20:31;19.90;99.90
11489;DHT22;5801;50.804;12.638;2022-09-24T13:23:45;20.00;99.90
11489;DHT22;5801;50.804;12.638;2022-09-24T13:26:06;20.20;99.90
11489;DHT22;5801;50.804;12.638;2022-09-24T13:28:53;19.90;99.90
11489;DHT22;5801;50.804;12.638;2022-09-24T13:31:32;19.40;97.80
11489;DHT22;5801;50.804;12.638;2022-09-24T13:36:39;19.50;99.90
11489;DHT22;5801;50.804;12.638;2022-09-24T13:39:16;19.40;99.90
11489;DHT22;5801;50.804;12.638;2022-09-24T13:42:14;19.40;99.90
11489;DHT22;5801;50.804;12.638;2022-09-24T13:44:44;19.40;98.60
11489;DHT22;5801;50.804;12.638;2022-09-24T13:47:16;19.20;99.90
11489;DHT22;5801;50.804;12.638;2022-09-24T13:49:48;19.10;99.90
11489;DHT22;5801;50.804;12.638;2022-09-24T13:52:27;19.10;99.90
11489;DHT22;5801;50.804;12.638;2022-09-24T13:54:56;19.10;99.90
11489;DHT22;5801;50.804;12.638;2022-09-24T13:57:27;19.20;99.90
11489;DHT22;5801;50.804;12.638;2022-09-24T14:05:14;18.80;92.40
11489;DHT22;5801;50.804;12.638;2022-09-24T14:07:40;18.90;99.90
11489;DHT22;5801;50.804;12.638;2022-09-24T14:10:12;18.80;92.20
11489;DHT22;5801;50.804;12.638;2022-09-24T14:12:38;18.70;99.90
11489;DHT22;5801;50.804;12.638;2022-09-24T14:15:13;18.70;95.20
11489;DHT22;5801;50.804;12.638;2022-09-24T14:20:07;18.70;94.20
11489;DHT22;5801;50.804;12.638;2022-09-24T14:22:36;18.80;99.90
11489;DHT22;5801;50.804;12.638;2022-09-24T14:25:08;18.60;94.80
11489;DHT22;5801;50.804;12.638;2022-09-24T14:27:41;18.70;99.90
11489;DHT22;5801;50.804;12.638;2022-09-24T14:30:22;18.80;99.90
11489;DHT22;5801;50.804;12.638;2022-09-24T14:32:55;18.90;99.90
11489;DHT22;5801;50.804;12.638;2022-09-24T14:35:29;18.60;99.90
11489;DHT22;5801;50.804;12.638;2022-09-24T14:38:05;17.90;99.90
11489;DHT22;5801;50.804;12.638;2022-09-24T14:41:05;18.20;99.90
11489;DHT22;5801;50.804;12.638;2022-09-24T14:43:45;18.10;99.90
11489;DHT22;5801;50.804;12.638;2022-09-24T14:46:33;18.10;99.90
11489;DHT22;5801;50.804;12.638;2022-09-24T14:52:21;18.10;99.90
11489;DHT22;5801;50.804;12.638;2022-09-24T14:55:00;18.10;99.90
11489;DHT22;5801;50.804;12.638;2022-09-24T14:57:26;18.00;99.90
11489;DHT22;5801;50.804;12.638;2022-09-24T14:59:52;18.00;99.90
11489;DHT22;5801;50.804;12.638;2022-09-24T15:02:30;18.00;99.90
11489;DHT22;5801;50.804;12.638;2022-09-24T15:05:00;17.90;99.90
11489;DHT22;5801;50.804;12.638;2022-09-24T15:07:28;18.00;99.90
11489;DHT22;5801;50.804;12.638;2022-09-24T15:09:58;17.90;99.90
11489;DHT22;5801;50.804;12.638;2022-09-24T15:12:30;18.00;99.90
11489;DHT22;5801;50.804;12.638;2022-09-24T15:17:42;17.60;99.90
11489;DHT22;5801;50.804;12.638;2022-09-24T15:20:09;17.60;99.90
11489;DHT22;5801;50.804;12.638;2022-09-24T15:22:35;17.70;99.90
11489;DHT22;5801;50.804;12.638;2022-09-24T15:25:01;17.90;99.90
11489;DHT22;5801;50.804;12.638;2022-09-24T15:27:29;17.70;99.90
11489;DHT22;5801;50.804;12.638;2022-09-24T15:29:55;17.40;99.90
11489;DHT22;5801;50.804;12.638;2022-09-24T15:32:24;17.70;99.90
11489;DHT22;5801;50.804;12.638;2022-09-24T15:34:51;17.70;99.90
11489;DHT22;5801;50.804;12.638;2022-09-24T15:37:21;17.80;99.90
11489;DHT22;5801;50.804;12.638;2022-09-24T15:42:19;17.70;99.90
11489;DHT22;5801;50.804;12.638;2022-09-24T15:44:45;17.60;99.90
11489;DHT22;5801;50.804;12.638;2022-09-24T15:47:12;17.70;99.90
11489;DHT22;5801;50.804;12.638;2022-09-24T15:49:37;17.70;99.90
11489;DHT22;5801;50.804;12.638;2022-09-24T15:52:22;17.70;99.90
11489;DHT22;5801;50.804;12.638;2022-09-24T15:55:00;17.60;99.90
11489;DHT22;5801;50.804;12.638;2022-09-24T15:57:26;17.50;99.90
11489;DHT22;5801;50.804;12.638;2022-09-24T15:59:52;17.40;99.90
11489;DHT22;5801;50.804;12.638;2022-09-24T16:02:30;17.40;99.90
11489;DHT22;5801;50.804;12.638;2022-09-24T16:04:56;17.50;99.90
11489;DHT22;5801;50.804;12.638;2022-09-24T16:07:23;17.30;99.90
11489;DHT22;5801;50.804;12.638;2022-09-24T16:09:49;17.30;99.90
11489;DHT22;5801;50.804;12.638;2022-09-24T16:12:15;17.20;99.90
11489;DHT22;5801;50.804;12.638;2022-09-24T16:14:41;17.00;99.90
11489;DHT22;5801;50.804;12.638;2022-09-24T16:17:07;16.60;99.90
11489;DHT22;5801;50.804;12.638;2022-09-24T16:21:58;16.60;99.90
11489;DHT22;5801;50.804;12.638;2022-09-24T16:24:25;16.40;99.90
11489;DHT22;5801;50.804;12.638;2022-09-24T16:26:51;16.30;99.90
11489;DHT22;5801;50.804;12.638;2022-09-24T16:31:45;16.20;99.90
11489;DHT22;5801;50.804;12.638;2022-09-24T16:34:11;16.10;99.90
11489;DHT22;5801;50.804;12.638;2022-09-24T16:43:59;15.60;99.90
11489;DHT22;5801;50.804;12.638;2022-09-24T16:46:26;15.50;99.90
11489;DHT22;5801;50.804;12.638;2022-09-24T16:48:51;15.40;99.90
11489;DHT22;5801;50.804;12.638;2022-09-24T16:51:17;15.40;99.90
11489;DHT22;5801;50.804;12.638;2022-09-24T16:53:42;15.20;99.90
11489;DHT22;5801;50.804;12.638;2022-09-24T16:56:12;15.10;99.90
11489;DHT22;5801;50.804;12.638;2022-09-24T16:58:41;15.00;99.90
11489;DHT22;5801;50.804;12.638;2022-09-24T17:01:10;14.90;99.90
11489;DHT22;5801;50.804;12.638;2022-09-24T17:03:36;14.90;99.90
11489;DHT22;5801;50.804;12.638;2022-09-24T17:06:01;14.80;99.90
11489;DHT22;5801;50.804;12.638;2022-09-24T17:08:30;14.70;99.90
11489;DHT22;5801;50.804;12.638;2022-09-24T17:16:06;14.40;99.90
11489;DHT22;5801;50.804;12.638;2022-09-24T17:21:01;14.30;99.90
11489;DHT22;5801;50.804;12.638;2022-09-24T17:23:28;14.20;99.90
11489;DHT22;5801;50.804;12.638;2022-09-24T17:26:05;14.20;99.90
11489;DHT22;5801;50.804;12.638;2022-09-24T17:28:32;14.20;99.90
11489;DHT22;5801;50.804;12.638;2022-09-24T17:30:57;14.20;99.90
11489;DHT22;5801;50.804;12.638;2022-09-24T17:35:56;14.30;99.90
11489;DHT22;5801;50.804;12.638;2022-09-24T17:40:53;14.20;99.90
11489;DHT22;5801;50.804;12.638;2022-09-24T17:46:01;14.00;99.90
11489;DHT22;5801;50.804;12.638;2022-09-24T17:48:33;13.90;99.90
11489;DHT22;5801;50.804;12.638;2022-09-24T17:51:14;13.90;99.90
11489;DHT22;5801;50.804;12.638;2022-09-24T17:53:40;13.90;99.90
11489;DHT22;5801;50.804;12.638;2022-09-24T17:56:07;13.90;99.90
11489;DHT22;5801;50.804;12.638;2022-09-24T17:58:38;13.90;99.90
11489;DHT22;5801;50.804;12.638;2022-09-24T18:01:18;13.80;99.90
11489;DHT22;5801;50.804;12.638;2022-09-24T18:03:44;13.60;99.90
11489;DHT22;5801;50.804;12.638;2022-09-24T18:06:12;13.80;99.90
11489;DHT22;5801;50.804;12.638;2022-09-24T18:08:40;13.90;99.90
11489;DHT22;5801;50.804;12.638;2022-09-24T18:11:09;13.90;99.90
11489;DHT22;5801;50.804;12.638;2022-09-24T18:16:02;13.80;99.90
11489;DHT22;5801;50.804;12.638;2022-09-24T18:18:28;13.70;99.90
11489;DHT22;5801;50.804;12.638;2022-09-24T18:20:53;13.70;99.90
11489;DHT22;5801;50.804;12.638;2022-09-24T18:23:19;13.70;99.90
11489;DHT22;5801;50.804;12.638;2022-09-24T18:28:12;13.70;99.90
11489;DHT22;5801;50.804;12.638;2022-09-24T18:33:04;13.70;99.90
11489;DHT22;5801;50.804;12.638;2022-09-24T18:37:55;13.60;99.90
11489;DHT22;5801;50.804;12.638;2022-09-24T18:40:21;13.70;99.90
11489;DHT22;5801;50.804;12.638;2022-09-24T18:47:40;13.70;99.90
11489;DHT22;5801;50.804;12.638;2022-09-24T18:50:06;13.70;99.90
11489;DHT22;5801;50.804;12.638;2022-09-24T18:52:32;13.60;99.90
11489;DHT22;5801;50.804;12.638;2022-09-24T18:54:58;13.80;99.90
11489;DHT22;5801;50.804;12.638;2022-09-24T18:57:24;13.50;99.90
11489;DHT22;5801;50.804;12.638;2022-09-24T19:02:15;13.40;99.90
11489;DHT22;5801;50.804;12.638;2022-09-24T19:07:07;13.50;99.90
11489;DHT22;5801;50.804;12.638;2022-09-24T19:09:36;13.60;99.90
11489;DHT22;5801;50.804;12.638;2022-09-24T19:12:02;13.30;99.90
11489;DHT22;5801;50.804;12.638;2022-09-24T19:19:22;13.30;99.90
11489;DHT22;5801;50.804;12.638;2022-09-24T19:29:10;13.00;99.90
11489;DHT22;5801;50.804;12.638;2022-09-24T19:31:38;12.90;99.90
11489;DHT22;5801;50.804;12.638;2022-09-24T19:34:06;12.80;99.90
11489;DHT22;5801;50.804;12.638;2022-09-24T19:36:33;12.70;99.90
11489;DHT22;5801;50.804;12.638;2022-09-24T19:43:58;12.50;99.90
11489;DHT22;5801;50.804;12.638;2022-09-24T19:46:25;12.40;99.90
11489;DHT22;5801;50.804;12.638;2022-09-24T19:48:53;12.20;99.90
11489;DHT22;5801;50.804;12.638;2022-09-24T19:51:29;12.30;99.90
11489;DHT22;5801;50.804;12.638;2022-09-24T19:53:59;12.20;99.90
11489;DHT22;5801;50.804;12.638;2022-09-24T19:56:26;12.20;99.90
11489;DHT22;5801;50.804;12.638;2022-09-24T19:58:53;12.00;99.90
11489;DHT22;5801;50.804;12.638;2022-09-24T20:01:21;12.10;99.90
11489;DHT22;5801;50.804;12.638;2022-09-24T20:03:48;12.10;99.90
11489;DHT22;5801;50.804;12.638;2022-09-24T20:06:16;12.00;99.90
11489;DHT22;5801;50.804;12.638;2022-09-24T20:08:42;11.90;99.90
11489;DHT22;5801;50.804;12.638;2022-09-24T20:11:10;11.90;99.90
11489;DHT22;5801;50.804;12.638;2022-09-24T20:16:10;11.70;99.90
11489;DHT22;5801;50.804;12.638;2022-09-24T20:18:38;11.90;99.90
11489;DHT22;5801;50.804;12.638;2022-09-24T20:21:04;11.80;99.90
11489;DHT22;5801;50.804;12.638;2022-09-24T20:31:11;11.70;99.90
11489;DHT22;5801;50.804;12.638;2022-09-24T20:33:38;11.70;99.90
11489;DHT22;5801;50.804;12.638;2022-09-24T20:38:32;11.50;99.90
11489;DHT22;5801;50.804;12.638;2022-09-24T20:40:58;11.50;99.90
11489;DHT22;5801;50.804;12.638;2022-09-24T20:43:24;11.40;99.90
11489;DHT22;5801;50.804;12.638;2022-09-24T20:53:09;11.40;99.90
11489;DHT22;5801;50.804;12.638;2022-09-24T20:55:35;11.30;99.90
11489;DHT22;5801;50.804;12.638;2022-09-24T21:03:00;11.20;99.90
11489;DHT22;5801;50.804;12.638;2022-09-24T21:05:26;11.30;99.90
11489;DHT22;5801;50.804;12.638;2022-09-24T21:07:52;11.20;99.90
11489;DHT22;5801;50.804;12.638;2022-09-24T21:12:44;11.20;99.90
11489;DHT22;5801;50.804;12.638;2022-09-24T21:15:10;11.20;99.90
11489;DHT22;5801;50.804;12.638;2022-09-24T21:20:02;11.10;99.90
11489;DHT22;5801;50.804;12.638;2022-09-24T21:24:54;11.20;99.90
11489;DHT22;5801;50.804;12.638;2022-09-24T21:29:47;11.00;99.90
11489;DHT22;5801;50.804;12.638;2022-09-24T21:32:14;11.00;99.90
11489;DHT22;5801;50.804;12.638;2022-09-24T21:37:07;11.10;99.90
11489;DHT22;5801;50.804;12.638;2022-09-24T21:42:00;11.10;99.90
11489;DHT22;5801;50.804;12.638;2022-09-24T21:46:54;11.10;1.00
11489;DHT22;5801;50.804;12.638;2022-09-24T21:51:47;11.10;1.00
11489;DHT22;5801;50.804;12.638;2022-09-24T21:54:14;11.20;1.00
11489;DHT22;5801;50.804;12.638;2022-09-24T21:56:41;11.20;1.00
11489;DHT22;5801;50.804;12.638;2022-09-24T21:59:07;11.10;1.00
11489;DHT22;5801;50.804;12.638;2022-09-24T22:01:50;11.10;1.00